Terminal Aerodrome Forecast
Issued by NWS Northern Indiana

Home | Current Version | Previous Version | Graphics & Text | Print | Product List | Glossary On
Versions: 1 2 3 4 5 6 7 8 9 10 11 12 13 14 15 16 17 18 19 20 21 22 23 24
381
FTUS43 KIWX 241120
TAFFWA
TAF
KFWA 241120Z 2412/2512 06006KT P6SM BKN100
     FM241700 10008KT P6SM -SHRA OVC025
     FM242300 05008KT 4SM -RA BR OVC015=

USA.gov is the U.S. government's official web portal to all federal, state and local government web resources and services.